Meyers, California
Current Conditions -  °F | °C
As of 12:55 PM on Sunday 21 Dec 2014 (Local Time) from KAUN Reporting Station
Overcast Overcast  
Wind Chill: 57°   Ceiling: 600
Heat Index: 57°   Visibility: 10mi
Dew Point: 55°   Wind: 5mph
Humidity: 94%   Direction: 160°SSE
Pressure: 30.27"   Gusts: NA
Location:  38.9502°N, 120.79°W
Report Text: KAUN 212055Z AUTO 16004KT 10SM OVC006 14/13 A3027 RMK AO1
Loading
Personal Weather Stations






























Interactive Weather Map New forecast layout! Learn more

10-Day Weather Forecast

Advertisements
Track Severe Weather on mobile